Time;durP1;ratioP1;P1;durP2;ratioP2;P2;SDS_P1;SDS_P2;PMS_P1;PMS_P2;Temp;Humidity;BMP_temperature;BMP_pressure;BME280_temperature;BME280_humidity;BME280_pressure;Samples;Min_cycle;Max_cycle;Signal;HPM_P1;HPM_P2
2021/08/05 00:01:11;;;;;;;5.40;3.63;;;21.30;84.10;;;;;;5001676;28;20034;-89
2021/08/05 00:03:37;;;;;;;5.13;3.88;;;21.30;84.30;;;;;;4979218;28;20029;-89
2021/08/05 00:06:03;;;;;;;4.78;3.70;;;21.30;84.50;;;;;;5009081;28;20109;-88
2021/08/05 00:08:36;;;;;;;4.57;3.40;;;21.30;84.60;;;;;;4993700;28;20033;-89
2021/08/05 00:11:05;;;;;;;6.45;3.80;;;21.30;84.70;;;;;;4967423;28;20111;-89
2021/08/05 00:13:31;;;;;;;5.10;3.83;;;21.20;84.70;;;;;;5007830;28;20018;-88
2021/08/05 00:15:57;;;;;;;4.82;3.75;;;21.20;84.80;;;;;;5010194;28;20047;-88
2021/08/05 00:18:25;;;;;;;5.05;3.67;;;21.20;85.00;;;;;;4996156;28;20104;-92
2021/08/05 00:20:51;;;;;;;4.80;3.90;;;21.20;85.10;;;;;;5007739;28;20120;-91
2021/08/05 00:23:17;;;;;;;4.45;3.60;;;21.20;85.10;;;;;;4981529;28;20515;-89
2021/08/05 00:25:42;;;;;;;5.13;3.95;;;21.20;85.30;;;;;;4996699;28;20018;-91
2021/08/05 00:28:08;;;;;;;4.70;3.50;;;21.10;85.50;;;;;;5012105;28;20036;-91
2021/08/05 00:30:34;;;;;;;4.05;3.47;;;21.10;85.80;;;;;;5025553;28;20073;-91
2021/08/05 00:33:00;;;;;;;6.68;4.05;;;21.10;85.80;;;;;;4993739;28;20140;-89
2021/08/05 00:35:25;;;;;;;5.97;4.40;;;21.10;85.60;;;;;;5026931;28;20045;-88
2021/08/05 00:37:51;;;;;;;5.82;4.30;;;21.00;85.80;;;;;;4976708;28;20057;-89
2021/08/05 00:40:17;;;;;;;6.35;4.05;;;21.00;86.00;;;;;;5008059;28;20053;-92
2021/08/05 00:42:49;;;;;;;6.30;4.43;;;21.00;86.00;;;;;;4996144;28;20137;-88
2021/08/05 00:45:16;;;;;;;5.07;4.15;;;21.00;86.10;;;;;;4995906;28;20458;-88
2021/08/05 00:47:42;;;;;;;5.18;4.00;;;21.00;86.10;;;;;;4992548;28;20018;-90
2021/08/05 00:50:08;;;;;;;4.80;4.07;;;20.90;86.20;;;;;;4995671;28;20409;-88
2021/08/05 00:52:34;;;;;;;5.53;4.45;;;20.90;86.30;;;;;;4976313;28;20022;-88
2021/08/05 00:55:03;;;;;;;5.68;4.15;;;20.90;86.20;;;;;;4956144;28;20467;-89
2021/08/05 00:57:29;;;;;;;5.88;4.43;;;20.90;86.40;;;;;;5015209;28;20017;-89
2021/08/05 00:59:54;;;;;;;6.28;4.95;;;20.80;86.60;;;;;;5004362;28;20026;-89
2021/08/05 01:02:20;;;;;;;6.90;5.03;;;20.80;86.90;;;;;;5011622;28;20155;-88
2021/08/05 01:04:51;;;;;;;5.88;4.55;;;20.80;86.70;;;;;;5032749;28;20029;-88
2021/08/05 01:07:23;;;;;;;5.75;4.68;;;20.70;86.90;;;;;;5001187;28;20594;-89
2021/08/05 01:10:21;;;;;;;5.85;4.85;;;20.70;87.20;;;;;;5024903;28;20100;-88
2021/08/05 01:12:50;;;;;;;6.05;4.93;;;20.70;87.70;;;;;;4995601;28;20018;-91
2021/08/05 01:15:21;;;;;;;6.10;4.63;;;20.70;87.60;;;;;;5006667;28;20024;-92
2021/08/05 01:17:52;;;;;;;7.80;5.38;;;20.60;87.50;;;;;;4987664;28;20013;-89
2021/08/05 01:20:19;;;;;;;6.75;5.07;;;20.60;87.70;;;;;;5005036;28;20029;-91
2021/08/05 01:23:03;;;;;;;6.38;5.10;;;20.60;87.90;;;;;;4998431;28;20045;-89
2021/08/05 01:25:33;;;;;;;6.25;5.15;;;20.60;88.00;;;;;;4999158;28;20033;-89
2021/08/05 01:28:00;;;;;;;6.43;5.22;;;20.60;88.20;;;;;;5016712;28;20017;-91
2021/08/05 01:30:27;;;;;;;6.78;5.82;;;20.60;88.00;;;;;;5016113;28;20083;-91
2021/08/05 01:32:58;;;;;;;7.78;5.70;;;20.50;88.00;;;;;;5016963;28;20037;-90
2021/08/05 01:35:25;;;;;;;6.53;5.20;;;20.50;88.30;;;;;;4974668;28;20030;-88
2021/08/05 01:37:51;;;;;;;6.72;5.30;;;20.50;88.20;;;;;;5006862;28;20018;-88
2021/08/05 01:40:18;;;;;;;6.63;5.10;;;20.40;88.20;;;;;;5002147;28;20045;-89
2021/08/05 01:42:45;;;;;;;5.18;4.40;;;20.40;88.30;;;;;;5014455;28;20084;-89
2021/08/05 01:45:13;;;;;;;6.00;4.80;;;20.40;88.40;;;;;;5007148;28;20049;-88
2021/08/05 01:47:40;;;;;;;4.82;4.32;;;20.40;88.50;;;;;;5020451;28;20089;-88
2021/08/05 01:50:07;;;;;;;7.00;5.18;;;20.40;88.70;;;;;;5018237;28;20041;-88
2021/08/05 01:52:35;;;;;;;5.53;4.43;;;20.40;88.70;;;;;;4985986;28;20014;-89
2021/08/05 01:55:06;;;;;;;6.88;4.63;;;20.30;88.50;;;;;;4999197;28;20018;-89
2021/08/05 01:57:37;;;;;;;7.32;4.80;;;20.30;88.60;;;;;;5016794;28;20454;-89
2021/08/05 02:00:07;;;;;;;7.22;4.70;;;20.30;88.90;;;;;;4999581;28;20038;-89
2021/08/05 02:02:33;;;;;;;6.13;4.60;;;20.30;88.90;;;;;;5016097;28;20094;-89
2021/08/05 02:05:06;;;;;;;6.18;4.70;;;20.20;88.90;;;;;;4998964;28;20504;-90
2021/08/05 02:07:43;;;;;;;7.03;5.32;;;20.20;88.70;;;;;;4995067;28;20021;-89
2021/08/05 02:10:45;;;;;;;6.10;4.60;;;20.20;89.10;;;;;;4989871;28;20037;-89
2021/08/05 02:13:27;;;;;;;6.53;4.78;;;20.20;89.30;;;;;;4945345;29;20110;-88
2021/08/05 02:15:59;;;;;;;7.15;5.30;;;20.20;89.10;;;;;;5012909;28;20097;-89
2021/08/05 02:18:31;;;;;;;6.15;5.32;;;20.10;89.10;;;;;;5023100;28;20048;-90
2021/08/05 02:20:59;;;;;;;6.40;5.25;;;20.10;89.10;;;;;;5017651;28;20041;-89
2021/08/05 02:23:29;;;;;;;6.25;5.38;;;20.10;89.40;;;;;;4975895;28;20022;-89
2021/08/05 02:25:58;;;;;;;6.63;5.40;;;20.10;89.60;;;;;;4980074;28;20027;-88
2021/08/05 02:28:25;;;;;;;5.95;5.13;;;20.10;89.60;;;;;;4995806;28;20453;-89
2021/08/05 02:30:55;;;;;;;7.43;6.00;;;20.00;89.90;;;;;;4999258;28;20034;-89
2021/08/05 02:33:22;;;;;;;7.32;5.43;;;20.00;89.90;;;;;;4987360;28;20026;-90
2021/08/05 02:35:49;;;;;;;6.45;5.47;;;20.00;89.90;;;;;;4995695;28;20030;-89
2021/08/05 02:38:15;;;;;;;7.00;5.90;;;20.00;89.90;;;;;;5015579;28;20474;-89
2021/08/05 02:40:45;;;;;;;7.45;5.80;;;20.00;90.00;;;;;;4984778;28;20026;-89
2021/08/05 02:43:12;;;;;;;9.15;6.10;;;19.90;90.00;;;;;;4983748;28;20085;-89
2021/08/05 02:45:42;;;;;;;8.73;6.50;;;19.90;90.00;;;;;;4976595;28;20029;-89
2021/08/05 02:48:09;;;;;;;6.82;5.70;;;19.90;90.10;;;;;;5008590;28;20053;-89
2021/08/05 02:50:38;;;;;;;6.63;5.82;;;19.90;90.10;;;;;;4992688;28;20038;-89
2021/08/05 02:53:05;;;;;;;6.45;5.50;;;19.90;90.20;;;;;;4995936;28;20509;-89
2021/08/05 02:55:31;;;;;;;6.55;5.40;;;19.90;90.30;;;;;;5027906;28;20029;-90
2021/08/05 02:57:58;;;;;;;7.10;5.68;;;19.80;90.30;;;;;;4990688;28;20070;-89
2021/08/05 03:00:25;;;;;;;7.13;6.00;;;19.80;90.30;;;;;;4995531;28;20347;-90
2021/08/05 03:02:51;;;;;;;6.57;5.70;;;19.80;90.30;;;;;;5009194;28;20053;-89
2021/08/05 03:05:18;;;;;;;6.90;6.05;;;19.80;90.40;;;;;;5013746;28;20014;-90
2021/08/05 03:07:43;;;;;;;6.57;5.55;;;19.80;90.50;;;;;;4979182;28;20096;-89
2021/08/05 03:10:12;;;;;;;6.97;6.18;;;19.80;90.50;;;;;;4975383;28;20463;-89
2021/08/05 03:12:37;;;;;;;7.43;5.90;;;19.80;90.50;;;;;;4988294;28;20030;-89
2021/08/05 03:15:04;;;;;;;7.63;6.00;;;19.80;90.50;;;;;;4995354;28;20029;-89
2021/08/05 03:17:29;;;;;;;7.32;6.35;;;19.80;90.40;;;;;;4969787;28;20045;-89
2021/08/05 03:19:57;;;;;;;7.18;6.18;;;19.70;90.50;;;;;;5015075;28;20026;-88
2021/08/05 03:22:23;;;;;;;7.88;5.85;;;19.80;90.60;;;;;;4981057;28;20053;-90
2021/08/05 03:24:49;;;;;;;7.57;6.22;;;19.70;90.60;;;;;;4969628;28;20486;-89
2021/08/05 03:27:14;;;;;;;7.05;6.13;;;19.70;90.60;;;;;;4992647;28;20426;-87
2021/08/05 03:29:40;;;;;;;7.80;5.90;;;19.70;90.70;;;;;;4986265;28;20382;-89
2021/08/05 03:32:08;;;;;;;7.15;6.13;;;19.70;90.70;;;;;;4966949;28;20105;-89
2021/08/05 03:34:34;;;;;;;6.88;5.80;;;19.70;90.80;;;;;;4989246;28;20057;-89
2021/08/05 03:37:00;;;;;;;8.23;5.82;;;19.70;90.80;;;;;;4961358;28;20019;-89
2021/08/05 03:39:25;;;;;;;6.05;5.45;;;19.60;90.90;;;;;;4979961;28;20056;-89
2021/08/05 03:41:51;;;;;;;6.53;5.80;;;19.60;90.70;;;;;;4972570;28;20026;-90
2021/08/05 03:44:17;;;;;;;6.40;5.70;;;19.60;90.80;;;;;;4997297;28;20026;-89
2021/08/05 03:46:43;;;;;;;6.22;5.63;;;19.60;90.90;;;;;;4987625;28;20394;-90
2021/08/05 03:49:10;;;;;;;7.25;5.60;;;19.60;90.90;;;;;;4966366;28;20038;-91
2021/08/05 03:51:36;;;;;;;6.13;5.47;;;19.60;90.90;;;;;;4975920;28;20037;-90
2021/08/05 03:54:02;;;;;;;6.65;5.35;;;19.60;90.90;;;;;;4975289;28;20026;-89
2021/08/05 03:56:28;;;;;;;7.85;6.10;;;19.60;91.00;;;;;;5000614;28;20028;-89
2021/08/05 03:58:54;;;;;;;5.97;5.32;;;19.50;91.00;;;;;;4997710;28;20517;-90
2021/08/05 04:01:20;;;;;;;6.40;5.75;;;19.50;91.00;;;;;;4961242;28;20463;-90
2021/08/05 04:03:49;;;;;;;6.75;5.75;;;19.50;91.00;;;;;;4978388;28;20022;-91
2021/08/05 04:06:14;;;;;;;6.30;5.45;;;19.50;91.10;;;;;;4996693;28;20135;-91
2021/08/05 04:08:40;;;;;;;8.20;5.85;;;19.50;91.10;;;;;;4989246;28;20046;-90
2021/08/05 04:11:06;;;;;;;6.82;5.32;;;19.50;91.10;;;;;;5005930;28;20033;-90
2021/08/05 04:13:35;;;;;;;6.70;5.57;;;19.50;91.20;;;;;;4984493;28;20366;-90
2021/08/05 04:16:01;;;;;;;7.55;6.15;;;19.50;91.40;;;;;;4997192;28;20029;-90
2021/08/05 04:18:27;;;;;;;7.05;5.53;;;19.50;91.20;;;;;;4996718;28;20021;-90
2021/08/05 04:20:53;;;;;;;7.88;6.03;;;19.40;91.20;;;;;;4986755;28;20042;-90
2021/08/05 04:23:18;;;;;;;7.45;6.35;;;19.40;91.30;;;;;;4965609;28;20033;-90
2021/08/05 04:25:45;;;;;;;6.78;5.82;;;19.40;91.30;;;;;;4988721;28;20100;-90
2021/08/05 04:28:11;;;;;;;5.63;4.97;;;19.40;91.30;;;;;;4965424;28;20479;-91
2021/08/05 04:30:37;;;;;;;7.47;5.93;;;19.30;91.20;;;;;;4979606;28;20416;-90
2021/08/05 04:33:02;;;;;;;6.30;5.20;;;19.40;91.40;;;;;;4991614;28;20061;-89
2021/08/05 04:35:28;;;;;;;6.55;5.78;;;19.30;91.30;;;;;;4980057;28;20027;-89
2021/08/05 04:38:00;;;;;;;7.57;5.90;;;19.30;91.40;;;;;;4977242;28;20471;-90
2021/08/05 04:40:29;;;;;;;7.15;6.10;;;19.30;91.50;;;;;;4990318;28;20029;-91
2021/08/05 04:42:55;;;;;;;7.75;6.22;;;19.30;91.60;;;;;;4963585;28;20059;-91
2021/08/05 04:45:22;;;;;;;7.93;5.90;;;19.30;91.40;;;;;;4976346;28;20092;-91
2021/08/05 04:47:50;;;;;;;6.85;6.03;;;19.20;91.40;;;;;;4975906;28;20021;-90
2021/08/05 04:50:17;;;;;;;6.43;5.72;;;19.20;91.40;;;;;;4993860;28;20033;-89
2021/08/05 04:52:46;;;;;;;7.65;6.18;;;19.10;91.60;;;;;;4976028;28;20038;-89
2021/08/05 04:55:11;;;;;;;6.28;5.60;;;19.10;91.70;;;;;;4976384;28;20031;-90
2021/08/05 04:57:53;;;;;;;8.20;6.20;;;19.10;91.70;;;;;;4996170;28;20050;-90
2021/08/05 05:00:29;;;;;;;7.20;5.93;;;19.00;91.80;;;;;;4980473;28;20049;-90
2021/08/05 05:02:55;;;;;;;8.93;6.32;;;19.00;92.00;;;;;;4977744;28;20042;-90
2021/08/05 05:05:22;;;;;;;7.07;5.93;;;18.90;92.10;;;;;;4989908;28;20079;-89
2021/08/05 05:07:51;;;;;;;7.18;5.90;;;18.90;92.10;;;;;;5017659;28;20033;-89
2021/08/05 05:10:18;;;;;;;7.63;5.72;;;18.90;92.20;;;;;;4993284;28;20018;-89
2021/08/05 05:12:44;;;;;;;7.32;6.20;;;18.90;92.40;;;;;;4987122;28;20084;-88
2021/08/05 05:15:11;;;;;;;8.00;6.00;;;18.90;92.30;;;;;;4980990;28;20053;-90
2021/08/05 05:17:38;;;;;;;6.97;6.28;;;18.90;92.30;;;;;;5000279;28;20057;-89
2021/08/05 05:20:05;;;;;;;6.93;5.65;;;19.00;92.30;;;;;;5000422;28;20481;-90
2021/08/05 05:22:31;;;;;;;7.68;6.10;;;19.00;92.30;;;;;;4980834;28;20043;-91
2021/08/05 05:24:57;;;;;;;7.57;6.45;;;19.00;92.30;;;;;;5010610;28;20459;-91
2021/08/05 05:27:23;;;;;;;7.32;6.55;;;19.00;92.30;;;;;;4997509;28;20025;-91
2021/08/05 05:29:55;;;;;;;7.13;6.28;;;19.00;92.20;;;;;;4997966;28;20033;-90
2021/08/05 05:32:22;;;;;;;7.43;6.32;;;19.00;92.10;;;;;;4997198;28;20073;-91
2021/08/05 05:34:49;;;;;;;7.82;6.65;;;19.00;92.10;;;;;;4996663;28;20046;-90
2021/08/05 05:37:15;;;;;;;6.93;6.10;;;19.00;92.10;;;;;;4996778;28;20027;-91
2021/08/05 05:39:41;;;;;;;7.82;6.97;;;19.00;92.20;;;;;;4980094;28;20081;-90
2021/08/05 05:42:07;;;;;;;7.57;6.53;;;19.00;92.10;;;;;;4996642;28;20061;-90
2021/08/05 05:44:33;;;;;;;7.18;6.18;;;19.00;92.10;;;;;;4996619;28;20042;-91
2021/08/05 05:46:59;;;;;;;7.88;6.65;;;19.00;92.10;;;;;;4996071;28;20077;-91
2021/08/05 05:49:24;;;;;;;7.60;6.50;;;19.00;92.20;;;;;;4995601;28;20518;-90
2021/08/05 05:51:53;;;;;;;8.93;6.88;;;19.00;92.30;;;;;;4995682;28;20074;-90
2021/08/05 05:54:19;;;;;;;7.47;6.50;;;19.00;92.20;;;;;;4995511;28;20037;-90
2021/08/05 05:56:45;;;;;;;7.65;6.85;;;19.10;92.40;;;;;;4995778;28;20048;-90
2021/08/05 05:59:11;;;;;;;7.55;6.38;;;19.00;92.20;;;;;;4979318;28;20030;-89
2021/08/05 06:01:36;;;;;;;8.45;7.60;;;19.00;92.20;;;;;;4982801;28;20371;-91
2021/08/05 06:04:05;;;;;;;10.32;8.50;;;19.10;92.30;;;;;;4987748;28;20023;-90
2021/08/05 06:06:30;;;;;;;9.10;7.60;;;19.10;92.20;;;;;;4978597;28;20105;-90
2021/08/05 06:08:56;;;;;;;9.50;7.25;;;19.00;92.10;;;;;;4978938;28;20099;-90
2021/08/05 06:11:26;;;;;;;8.57;7.68;;;19.10;92.20;;;;;;4979034;28;20023;-90
2021/08/05 06:13:53;;;;;;;8.77;7.60;;;19.10;92.20;;;;;;4968807;28;20113;-89
2021/08/05 06:16:20;;;;;;;8.20;7.28;;;19.00;92.10;;;;;;4990193;28;20027;-90
2021/08/05 06:18:45;;;;;;;9.55;7.32;;;19.00;92.10;;;;;;4980821;28;20026;-90
2021/08/05 06:21:11;;;;;;;7.78;6.97;;;19.10;92.10;;;;;;4998991;28;20045;-89
2021/08/05 06:23:37;;;;;;;9.20;7.88;;;19.00;92.20;;;;;;4997857;28;20027;-89
2021/08/05 06:26:03;;;;;;;9.73;7.68;;;19.00;92.30;;;;;;5015121;28;20026;-89
2021/08/05 06:28:30;;;;;;;8.18;7.35;;;19.10;92.40;;;;;;4994991;28;20482;-89
2021/08/05 06:30:59;;;;;;;8.75;7.72;;;19.00;92.30;;;;;;4994104;28;20122;-92
2021/08/05 06:33:25;;;;;;;8.88;7.80;;;19.00;92.20;;;;;;4987854;28;20026;-90
2021/08/05 06:35:57;;;;;;;9.35;8.07;;;19.00;92.20;;;;;;4981454;28;20023;-90
2021/08/05 06:38:23;;;;;;;11.18;8.50;;;19.00;92.10;;;;;;5005766;28;20022;-90
2021/08/05 06:40:51;;;;;;;9.85;7.63;;;19.00;92.20;;;;;;4993229;28;20030;-90
2021/08/05 06:43:17;;;;;;;8.57;7.55;;;18.90;92.20;;;;;;4993759;28;20025;-92
2021/08/05 06:45:43;;;;;;;8.95;8.05;;;18.90;92.30;;;;;;4971644;28;20031;-90
2021/08/05 06:48:09;;;;;;;10.25;8.38;;;18.90;92.20;;;;;;4989803;28;20014;-89
2021/08/05 06:50:35;;;;;;;10.75;8.40;;;18.90;92.20;;;;;;4971364;28;20045;-90
2021/08/05 06:53:27;;;;;;;12.32;9.25;;;18.80;92.30;;;;;;5018636;28;20029;-90
2021/08/05 06:55:52;;;;;;;10.13;9.13;;;18.90;92.30;;;;;;4982118;28;20034;-88
2021/08/05 06:58:20;;;;;;;9.40;8.50;;;18.80;92.30;;;;;;4979160;28;20098;-90
2021/08/05 07:00:46;;;;;;;9.25;8.35;;;18.80;92.30;;;;;;4988297;28;20035;-89
2021/08/05 07:03:12;;;;;;;9.63;8.63;;;18.80;92.30;;;;;;4960274;28;20471;-89
2021/08/05 07:05:38;;;;;;;9.80;8.80;;;18.80;92.40;;;;;;4976772;28;20022;-90
2021/08/05 07:08:04;;;;;;;12.07;9.95;;;18.90;92.50;;;;;;4945422;28;20030;-89
2021/08/05 07:10:30;;;;;;;9.95;8.93;;;18.90;92.60;;;;;;4966434;28;20147;-89
2021/08/05 07:12:56;;;;;;;11.48;10.27;;;18.90;92.60;;;;;;4972845;28;20365;-89
2021/08/05 07:15:21;;;;;;;10.52;9.43;;;18.90;92.60;;;;;;4962534;28;20037;-89
2021/08/05 07:17:47;;;;;;;10.57;9.50;;;18.90;92.50;;;;;;4977516;28;20082;-90
2021/08/05 07:20:16;;;;;;;11.00;9.98;;;18.90;92.50;;;;;;4990589;28;20030;-90
2021/08/05 07:22:42;;;;;;;11.60;10.43;;;18.90;92.40;;;;;;4972368;28;20034;-89
2021/08/05 07:25:11;;;;;;;11.77;10.20;;;19.00;92.40;;;;;;4951335;28;20185;-89
2021/08/05 07:27:38;;;;;;;10.88;9.60;;;18.90;92.40;;;;;;4988288;28;20019;-90
2021/08/05 07:30:06;;;;;;;12.80;10.82;;;18.90;92.30;;;;;;4994030;28;20041;-89
2021/08/05 07:32:32;;;;;;;11.95;10.75;;;18.90;92.30;;;;;;4977380;28;20026;-89
2021/08/05 07:35:03;;;;;;;12.30;10.07;;;18.90;92.40;;;;;;4950837;28;20023;-90
2021/08/05 07:37:36;;;;;;;10.93;9.82;;;18.90;92.50;;;;;;4991457;28;20018;-90
2021/08/05 07:40:06;;;;;;;10.90;9.02;;;18.90;92.60;;;;;;4993730;28;20030;-89
2021/08/05 07:42:32;;;;;;;11.73;10.53;;;19.00;92.70;;;;;;4991144;28;20518;-90
2021/08/05 07:45:01;;;;;;;11.60;10.40;;;19.00;92.70;;;;;;4974017;28;20266;-89
2021/08/05 07:47:27;;;;;;;12.25;9.93;;;19.00;92.70;;;;;;4960177;28;20110;-89
2021/08/05 07:49:53;;;;;;;10.50;9.40;;;19.10;92.80;;;;;;4985318;28;20081;-90
2021/08/05 07:52:19;;;;;;;10.63;8.82;;;19.10;92.70;;;;;;4989980;28;20018;-89
2021/08/05 07:54:45;;;;;;;11.95;10.10;;;19.10;92.80;;;;;;4994041;28;20023;-92
2021/08/05 07:57:11;;;;;;;12.30;10.15;;;19.10;92.80;;;;;;4982625;28;20486;-89
2021/08/05 07:59:39;;;;;;;10.68;9.30;;;19.20;92.80;;;;;;4996567;28;20034;-89
2021/08/05 08:02:04;;;;;;;11.10;9.90;;;19.20;92.80;;;;;;4976555;28;20529;-90
2021/08/05 08:04:30;;;;;;;10.57;9.43;;;19.30;92.80;;;;;;4976580;28;20022;-91
2021/08/05 08:06:56;;;;;;;10.25;9.23;;;19.30;92.80;;;;;;4977739;28;20097;-89
2021/08/05 08:09:22;;;;;;;12.68;10.02;;;19.30;92.80;;;;;;4959481;28;20113;-88
2021/08/05 08:11:47;;;;;;;11.35;10.15;;;19.30;92.80;;;;;;4994168;28;20022;-92
2021/08/05 08:14:13;;;;;;;11.27;10.18;;;19.40;93.10;;;;;;4976887;28;20085;-88
2021/08/05 08:16:40;;;;;;;12.57;11.25;;;19.40;92.80;;;;;;4960643;28;20069;-87
2021/08/05 08:19:06;;;;;;;11.60;10.40;;;19.50;92.80;;;;;;4957990;28;20110;-90
2021/08/05 08:21:35;;;;;;;11.75;10.38;;;19.50;92.80;;;;;;4963191;28;20073;-90
2021/08/05 08:24:01;;;;;;;11.23;10.02;;;19.50;92.70;;;;;;4969206;28;20015;-89
2021/08/05 08:26:27;;;;;;;10.05;9.05;;;19.60;92.70;;;;;;4990815;28;20014;-90
2021/08/05 08:28:52;;;;;;;11.80;9.95;;;19.60;92.70;;;;;;4976870;28;20101;-90
2021/08/05 08:31:18;;;;;;;10.77;9.57;;;19.60;92.70;;;;;;4981601;28;20026;-90
2021/08/05 08:33:44;;;;;;;10.13;8.98;;;19.70;92.70;;;;;;4982386;28;20029;-90
2021/08/05 08:36:16;;;;;;;10.20;9.00;;;19.80;92.70;;;;;;4973965;28;20030;-90
2021/08/05 08:38:43;;;;;;;10.77;9.68;;;19.80;92.70;;;;;;4957559;28;20019;-89
2021/08/05 08:41:14;;;;;;;11.23;10.02;;;19.80;92.70;;;;;;4995042;28;20117;-90
2021/08/05 08:43:42;;;;;;;11.50;9.98;;;19.90;92.60;;;;;;4977774;28;20109;-90
2021/08/05 08:46:10;;;;;;;11.90;10.07;;;20.00;92.60;;;;;;4984612;28;20027;-89
2021/08/05 08:48:37;;;;;;;11.73;10.18;;;20.10;92.50;;;;;;4964764;28;20019;-89
2021/08/05 08:51:05;;;;;;;13.68;12.25;;;20.10;92.50;;;;;;4959937;28;20023;-90
2021/08/05 08:53:39;;;;;;;13.18;11.77;;;20.10;92.40;;;;;;4966521;28;20026;-89
2021/08/05 08:56:06;;;;;;;12.70;11.15;;;20.20;92.30;;;;;;4979270;28;20018;-91
2021/08/05 08:58:33;;;;;;;14.60;12.35;;;20.40;92.30;;;;;;4975587;28;20427;-89
2021/08/05 09:00:58;;;;;;;14.73;11.75;;;20.40;92.20;;;;;;5007081;28;20030;-87
2021/08/05 09:03:27;;;;;;;13.38;12.02;;;20.50;92.20;;;;;;4958467;28;20414;-87
2021/08/05 09:05:55;;;;;;;13.35;11.52;;;20.60;92.20;;;;;;4992846;28;20034;-88
2021/08/05 09:08:21;;;;;;;11.30;10.10;;;20.60;92.10;;;;;;4974390;28;20037;-87
2021/08/05 09:10:46;;;;;;;11.52;9.93;;;20.70;91.90;;;;;;4958625;28;20380;-86
2021/08/05 09:13:15;;;;;;;12.48;9.73;;;20.80;91.90;;;;;;4974816;28;20068;-86
2021/08/05 09:15:45;;;;;;;12.27;10.98;;;20.80;91.80;;;;;;4992591;28;20027;-87
2021/08/05 09:18:41;;;;;;;11.30;10.13;;;20.90;91.70;;;;;;4992384;28;20023;-86
2021/08/05 09:21:15;;;;;;;18.13;16.33;;;21.00;91.60;;;;;;4973238;28;20065;-85
2021/08/05 09:23:48;;;;;;;19.48;15.35;;;21.00;90.90;;;;;;4994384;28;20010;-87
2021/08/05 09:26:44;;;;;;;18.50;16.58;;;21.00;90.10;;;;;;4973947;28;20070;-86
2021/08/05 09:29:14;;;;;;;16.63;14.93;;;21.00;89.40;;;;;;4984222;28;20026;-87
2021/08/05 09:31:58;;;;;;;15.47;13.97;;;21.00;89.30;;;;;;4992585;28;20022;-88
2021/08/05 09:34:43;;;;;;;12.80;11.38;;;21.00;89.20;;;;;;4991182;28;20277;-87
2021/08/05 09:37:16;;;;;;;12.45;10.25;;;21.10;89.50;;;;;;4991153;28;20462;-87
2021/08/05 09:39:45;;;;;;;11.02;9.88;;;21.10;89.70;;;;;;4975401;28;20038;-86
2021/08/05 09:42:15;;;;;;;11.13;9.93;;;21.20;89.90;;;;;;4975767;28;20117;-87
2021/08/05 09:44:42;;;;;;;12.50;10.48;;;21.20;90.00;;;;;;4978422;28;20022;-87
2021/08/05 09:47:15;;;;;;;10.95;9.68;;;21.30;90.00;;;;;;4993586;28;20072;-87
2021/08/05 09:49:52;;;;;;;10.57;9.48;;;21.40;89.90;;;;;;4981721;28;20521;-87
2021/08/05 09:52:32;;;;;;;11.85;10.27;;;21.50;90.00;;;;;;4994982;28;20026;-86
2021/08/05 09:55:00;;;;;;;12.48;11.25;;;21.50;89.70;;;;;;4982022;28;20025;-86
2021/08/05 09:57:28;;;;;;;12.73;10.98;;;21.60;88.80;;;;;;4994025;28;20026;-86
2021/08/05 10:00:21;;;;;;;15.50;13.65;;;21.60;88.50;;;;;;4996661;28;20053;-87
2021/08/05 10:02:49;;;;;;;13.57;12.18;;;21.60;88.00;;;;;;4991170;28;20128;-86
2021/08/05 10:05:22;;;;;;;12.10;10.80;;;21.70;87.70;;;;;;4980215;28;20121;-86
2021/08/05 10:07:52;;;;;;;11.00;9.90;;;21.70;87.80;;;;;;4994677;28;20076;-87
2021/08/05 10:10:19;;;;;;;10.95;9.80;;;21.80;87.90;;;;;;4994535;28;20026;-87
2021/08/05 10:12:51;;;;;;;10.52;9.52;;;21.80;87.80;;;;;;4994460;28;20463;-86
2021/08/05 10:15:17;;;;;;;9.70;8.70;;;21.90;88.00;;;;;;4980779;28;20022;-86
2021/08/05 10:17:43;;;;;;;10.75;9.52;;;22.00;87.50;;;;;;4993213;28;20030;-87
2021/08/05 10:20:13;;;;;;;9.43;8.43;;;22.00;86.70;;;;;;4976133;28;20026;-86
2021/08/05 10:22:40;;;;;;;11.05;9.95;;;22.10;86.70;;;;;;5007184;28;20045;-87
2021/08/05 10:25:10;;;;;;;10.30;9.23;;;22.10;85.00;;;;;;4995982;28;20038;-84
2021/08/05 10:27:36;;;;;;;9.20;8.20;;;22.20;85.50;;;;;;4997642;28;20006;-91
2021/08/05 10:30:08;;;;;;;13.25;11.95;;;22.30;85.40;;;;;;4996635;28;20030;-92
2021/08/05 10:32:34;;;;;;;12.38;11.18;;;22.40;83.80;;;;;;4994571;28;20010;-91
2021/08/05 10:35:01;;;;;;;11.27;10.13;;;22.40;83.50;;;;;;4981279;28;20664;-91
2021/08/05 10:37:26;;;;;;;10.82;9.73;;;22.50;83.90;;;;;;4997296;28;20463;-92
2021/08/05 10:39:53;;;;;;;14.23;12.90;;;22.60;84.40;;;;;;4981016;28;20104;-91
2021/08/05 10:42:24;;;;;;;11.05;9.98;;;22.60;82.40;;;;;;4979288;28;20018;-92
2021/08/05 10:44:53;;;;;;;9.35;8.38;;;22.70;82.40;;;;;;4993404;28;20021;-89
2021/08/05 10:47:22;;;;;;;9.27;8.27;;;22.70;81.70;;;;;;5000248;28;20022;-91
2021/08/05 10:50:01;;;;;;;9.98;8.98;;;22.80;81.30;;;;;;5019633;28;20018;-91
2021/08/05 10:52:37;;;;;;;10.40;9.30;;;22.80;80.80;;;;;;5014367;28;20024;-93
2021/08/05 10:55:23;;;;;;;11.05;9.95;;;22.90;78.60;;;;;;4995836;28;20037;-91
2021/08/05 10:58:09;;;;;;;12.50;10.02;;;22.90;78.30;;;;;;4996643;28;20108;-92
2021/08/05 11:00:53;;;;;;;11.93;10.40;;;22.90;78.60;;;;;;4993628;28;20078;-92
2021/08/05 11:03:55;;;;;;;12.20;11.00;;;23.00;77.90;;;;;;5003006;28;20025;-92
2021/08/05 11:06:26;;;;;;;;;;;23.00;77.30;;;;;;5013356;28;20022;-89
2021/08/05 11:08:52;;;;;;;10.25;9.27;;;23.10;77.50;;;;;;4997089;28;20338;-89
2021/08/05 11:11:22;;;;;;;11.43;10.32;;;23.20;78.10;;;;;;4996174;28;20042;-89
2021/08/05 11:13:59;;;;;;;11.75;10.55;;;23.20;78.30;;;;;;4996856;28;20022;-88
2021/08/05 11:16:53;;;;;;;9.52;8.50;;;23.30;78.20;;;;;;4996525;28;20025;-89
2021/08/05 11:19:27;;;;;;;9.15;8.13;;;23.50;78.70;;;;;;4996793;28;20348;-90
2021/08/05 11:21:54;;;;;;;9.60;8.63;;;23.50;78.30;;;;;;5008954;28;20083;-90
2021/08/05 11:24:47;;;;;;;9.82;8.82;;;23.60;78.60;;;;;;4983882;28;20094;-91
2021/08/05 11:27:21;;;;;;;9.32;8.32;;;23.70;78.90;;;;;;4985066;28;20030;-92
2021/08/05 11:29:53;;;;;;;13.05;11.57;;;23.70;78.80;;;;;;4993836;28;20034;-91
2021/08/05 11:32:22;;;;;;;13.45;12.18;;;23.80;78.40;;;;;;4992201;28;20015;-86
2021/08/05 11:35:10;;;;;;;13.90;12.43;;;23.80;76.50;;;;;;4994710;28;20487;-86
2021/08/05 11:37:36;;;;;;;10.63;9.52;;;23.80;76.70;;;;;;4995291;28;20038;-87
2021/08/05 11:40:05;;;;;;;12.45;10.40;;;23.80;77.20;;;;;;4991008;28;20505;-88
2021/08/05 11:42:31;;;;;;;11.95;10.80;;;23.80;77.30;;;;;;5002219;28;20077;-91
2021/08/05 11:44:56;;;;;;;10.88;9.77;;;23.80;76.40;;;;;;4992825;28;20018;-92
2021/08/05 11:47:40;;;;;;;10.98;9.57;;;23.90;77.40;;;;;;4997027;28;20021;-91
2021/08/05 11:50:38;;;;;;;11.05;9.95;;;23.90;76.60;;;;;;4991734;28;20105;-92
2021/08/05 11:53:02;;;;;;;9.07;7.25;;;24.00;76.60;;;;;;4987018;28;20024;-93
2021/08/05 11:55:34;;;;;;;8.70;7.80;;;24.10;77.10;;;;;;4993243;28;20116;-92
2021/08/05 11:58:03;;;;;;;8.57;7.68;;;24.20;77.20;;;;;;4973585;28;20117;-92
2021/08/05 12:00:50;;;;;;;7.63;6.60;;;24.30;77.20;;;;;;4992520;28;20026;-91
2021/08/05 12:03:16;;;;;;;9.20;8.30;;;24.40;77.60;;;;;;4988764;28;20030;-91
2021/08/05 12:05:55;;;;;;;12.13;10.93;;;24.50;77.70;;;;;;4985867;28;20030;-89
2021/08/05 12:08:22;;;;;;;14.20;12.80;;;24.60;75.80;;;;;;4994036;28;20422;-90
2021/08/05 12:10:48;;;;;;;10.90;9.90;;;24.60;72.80;;;;;;4994766;28;20030;-92
2021/08/05 12:13:21;;;;;;;11.82;10.63;;;24.60;74.20;;;;;;4993388;28;20040;-91
2021/08/05 12:15:51;;;;;;;12.50;10.85;;;24.70;74.60;;;;;;4993560;28;20019;-90
2021/08/05 12:18:20;;;;;;;11.20;10.10;;;24.70;74.00;;;;;;4992827;28;20069;-90
2021/08/05 12:20:48;;;;;;;10.07;9.07;;;24.70;73.00;;;;;;4993379;28;20018;-89
2021/08/05 12:23:32;;;;;;;11.45;10.25;;;24.70;74.60;;;;;;4979746;28;20053;-84
2021/08/05 12:28:29;;;;;;;14.45;13.05;;;24.70;74.10;;;;;;4989722;28;20086;-85
2021/08/05 12:30:57;;;;;;;15.63;13.98;;;24.60;72.60;;;;;;4964656;28;20430;-85
2021/08/05 12:33:26;;;;;;;16.10;14.50;;;24.60;73.20;;;;;;4992471;28;20228;-91
2021/08/05 12:36:09;;;;;;;15.65;13.88;;;24.50;75.40;;;;;;4992684;28;20451;-89
2021/08/05 12:38:48;;;;;;;17.13;15.43;;;24.50;78.90;;;;;;4992734;28;20525;-89
2021/08/05 12:41:22;;;;;;;16.25;14.65;;;24.40;78.40;;;;;;4965847;28;20042;-91
2021/08/05 12:43:49;;;;;;;16.92;15.25;;;24.30;81.70;;;;;;4977491;28;20026;-91
2021/08/05 12:46:16;;;;;;;16.75;15.05;;;24.20;80.80;;;;;;4992861;28;20029;-89
2021/08/05 12:48:42;;;;;;;17.02;15.43;;;24.10;82.60;;;;;;4976457;28;20027;-89
2021/08/05 12:51:18;;;;;;;17.58;15.98;;;24.00;84.00;;;;;;4985341;28;20467;-88
2021/08/05 12:53:44;;;;;;;17.02;15.43;;;23.90;85.60;;;;;;4990295;28;20022;-88